Time;durP1;ratioP1;P1;durP2;ratioP2;P2;SDS_P1;SDS_P2;PMS_P1;PMS_P2;Temp;Humidity;BMP_temperature;BMP_pressure;BME280_temperature;BME280_humidity;BME280_pressure;Samples;Min_cycle;Max_cycle;Signal;HPM_P1;HPM_P2
2024/01/06 00:01:41;;;;;;;22.23;8.15;;;;;;;6.51;67.13;93749.28;5085873;28;20123;-79
2024/01/06 00:04:07;;;;;;;14.30;6.60;;;;;;;6.34;67.07;93742.66;5085688;28;20020;-79
2024/01/06 00:06:32;;;;;;;17.77;5.68;;;;;;;6.30;66.55;93746.19;5084677;28;20257;-79
2024/01/06 00:09:00;;;;;;;14.23;6.05;;;;;;;6.23;66.52;93736.75;5084440;28;20229;-79
2024/01/06 00:11:26;;;;;;;13.38;4.78;;;;;;;6.26;66.00;93714.22;5085462;28;20109;-79
2024/01/06 00:13:51;;;;;;;11.07;4.60;;;;;;;6.30;65.15;93725.78;5085608;28;20196;-79
2024/01/06 00:16:23;;;;;;;9.68;4.80;;;;;;;6.41;64.69;93721.91;5085432;28;20322;-79
2024/01/06 00:18:48;;;;;;;10.52;3.17;;;;;;;6.42;60.60;93739.34;5083621;28;20024;-79
2024/01/06 00:21:14;;;;;;;9.20;3.38;;;;;;;6.48;60.76;93742.72;5084894;28;20027;-79
2024/01/06 00:23:40;;;;;;;10.65;3.90;;;;;;;6.37;61.79;93750.03;5082434;28;20020;-79
2024/01/06 00:26:05;;;;;;;11.82;4.68;;;;;;;6.52;62.25;93738.41;5085006;28;20028;-80
2024/01/06 00:28:31;;;;;;;9.52;3.03;;;;;;;6.61;62.44;93735.88;5085230;28;20240;-79
2024/01/06 00:30:56;;;;;;;12.60;4.65;;;;;;;6.69;62.17;93752.97;5084692;28;20024;-79
2024/01/06 00:33:22;;;;;;;15.23;5.03;;;;;;;6.71;62.55;93750.81;5084620;28;20207;-79
2024/01/06 00:35:47;;;;;;;22.90;7.07;;;;;;;6.73;62.49;93748.66;5084660;28;20020;-79
2024/01/06 00:38:12;;;;;;;23.05;7.30;;;;;;;6.72;62.03;93747.09;5084745;28;20031;-80
2024/01/06 00:40:38;;;;;;;22.25;6.47;;;;;;;6.70;61.35;93746.63;5084531;28;20192;-79
2024/01/06 00:43:03;;;;;;;27.20;7.22;;;;;;;6.74;61.36;93747.59;5084515;28;20031;-79
2024/01/06 00:45:30;;;;;;;22.60;6.78;;;;;;;6.70;61.60;93751.91;5084723;28;20024;-81
2024/01/06 00:47:56;;;;;;;27.58;6.72;;;;;;;6.59;61.19;93730.09;5084510;28;20028;-83
2024/01/06 00:50:21;;;;;;;20.30;5.97;;;;;;;6.67;61.08;93728.63;5084533;28;20097;-85
2024/01/06 00:52:46;;;;;;;26.85;6.35;;;;;;;6.69;60.93;93734.44;5084364;28;20338;-85
2024/01/06 00:55:12;;;;;;;23.85;7.88;;;;;;;6.74;61.37;93744.94;5084472;28;20028;-85
2024/01/06 00:57:37;;;;;;;33.97;9.88;;;;;;;6.75;61.90;93735.91;5084148;28;20024;-85
2024/01/06 01:00:06;;;;;;;32.40;9.88;;;;;;;6.76;61.40;93737.50;5084668;28;20264;-85
2024/01/06 01:02:32;;;;;;;21.63;5.47;;;;;;;6.70;61.67;93718.25;5084305;28;20025;-85
2024/01/06 01:04:57;;;;;;;21.77;6.00;;;;;;;6.73;60.79;93746.00;5084411;28;20052;-85
2024/01/06 01:07:23;;;;;;;27.30;6.88;;;;;;;6.70;60.67;93731.50;5083096;28;20020;-85
2024/01/06 01:09:49;;;;;;;17.48;4.82;;;;;;;6.71;60.52;93734.94;5083809;28;20043;-84
2024/01/06 01:12:14;;;;;;;23.55;6.55;;;;;;;6.73;60.52;93743.38;5084161;28;20402;-85
2024/01/06 01:14:40;;;;;;;22.30;7.60;;;;;;;6.75;61.04;93730.63;5083608;28;20097;-85
2024/01/06 01:17:05;;;;;;;16.70;5.85;;;;;;;6.72;61.43;93726.69;5084116;28;20056;-85
2024/01/06 01:19:30;;;;;;;15.02;5.20;;;;;;;6.71;61.25;93721.69;5083934;28;20035;-85
2024/01/06 01:21:56;;;;;;;20.20;5.15;;;;;;;6.70;61.03;93722.78;5083863;28;20219;-85
2024/01/06 01:24:22;;;;;;;12.90;4.80;;;;;;;6.71;61.30;93722.47;5083248;28;20024;-84
2024/01/06 01:26:48;;;;;;;13.07;5.13;;;;;;;6.59;61.43;93722.94;5083639;28;20089;-85
2024/01/06 01:29:14;;;;;;;21.58;6.20;;;;;;;6.58;61.03;93713.41;5084083;28;20032;-85
2024/01/06 01:31:39;;;;;;;20.55;6.55;;;;;;;6.57;61.37;93714.50;5083623;28;20351;-84
2024/01/06 01:34:04;;;;;;;13.75;5.35;;;;;;;6.57;61.42;93716.34;5083258;28;20138;-83
2024/01/06 01:36:30;;;;;;;14.32;5.30;;;;;;;6.56;61.97;93712.94;5083539;28;20020;-84
2024/01/06 01:38:55;;;;;;;15.70;5.70;;;;;;;6.56;62.00;93699.69;5083630;28;20028;-85
2024/01/06 01:41:20;;;;;;;14.65;5.50;;;;;;;6.56;61.94;93701.56;5083325;28;20048;-85
2024/01/06 01:43:46;;;;;;;14.32;4.75;;;;;;;6.57;61.71;93703.91;5083443;28;20021;-85
2024/01/06 01:46:11;;;;;;;10.98;3.97;;;;;;;6.57;61.41;93692.50;5083050;28;20028;-85
2024/01/06 01:48:37;;;;;;;15.65;5.38;;;;;;;6.54;61.25;93699.19;5083451;28;20028;-85
2024/01/06 01:51:03;;;;;;;13.00;4.57;;;;;;;6.55;60.91;93699.97;5083373;28;20016;-84
2024/01/06 01:53:30;;;;;;;21.42;5.28;;;;;;;6.47;61.59;93690.03;5082035;28;20024;-84
2024/01/06 01:55:57;;;;;;;16.08;6.60;;;;;;;6.47;62.41;93688.19;5082966;28;20017;-83
2024/01/06 01:58:23;;;;;;;18.25;5.78;;;;;;;6.42;62.39;93697.00;5083068;28;20016;-83
2024/01/06 02:00:48;;;;;;;18.30;5.72;;;;;;;6.38;62.38;93682.78;5083195;28;20314;-83
2024/01/06 02:03:15;;;;;;;15.20;5.53;;;;;;;6.39;62.24;93680.91;5082920;28;20017;-83
2024/01/06 02:05:40;;;;;;;13.55;5.53;;;;;;;6.41;62.89;93684.03;5082997;28;20095;-82
2024/01/06 02:08:06;;;;;;;14.75;5.28;;;;;;;6.41;62.99;93681.41;5082704;28;20033;-82
2024/01/06 02:10:31;;;;;;;14.23;5.18;;;;;;;6.43;63.35;93680.06;5082966;28;20067;-82
2024/01/06 02:12:57;;;;;;;14.98;5.88;;;;;;;6.43;63.45;93669.47;5083018;28;20024;-82
2024/01/06 02:15:22;;;;;;;15.10;5.47;;;;;;;6.45;62.98;93653.25;5082777;28;20056;-92
2024/01/06 02:17:48;;;;;;;15.77;7.03;;;;;;;6.45;62.66;93658.56;5081569;28;20341;-82
2024/01/06 02:20:16;;;;;;;22.73;8.05;;;;;;;6.46;62.74;93668.09;5082651;28;20088;-83
2024/01/06 02:22:41;;;;;;;33.97;11.75;;;;;;;6.46;62.89;93644.25;5083006;28;20031;-82
2024/01/06 02:25:12;;;;;;;23.85;10.27;;;;;;;6.49;62.65;93643.66;5082634;28;20036;-82
2024/01/06 02:27:38;;;;;;;18.25;7.63;;;;;;;6.50;62.70;93652.41;5082519;28;20029;-82
2024/01/06 02:30:04;;;;;;;15.07;6.15;;;;;;;6.37;63.18;93644.16;5082703;28;20028;-83
2024/01/06 02:32:29;;;;;;;8.68;4.10;;;;;;;6.32;63.42;93644.22;5083097;28;20230;-83
2024/01/06 02:34:55;;;;;;;16.63;4.57;;;;;;;6.32;63.59;93643.44;5081629;28;20028;-81
2024/01/06 02:37:20;;;;;;;18.60;4.85;;;;;;;6.34;64.48;93641.28;5082477;28;20336;-79
2024/01/06 02:39:46;;;;;;;12.65;4.47;;;;;;;6.37;63.85;93636.22;5082592;28;20319;-81
2024/01/06 02:42:11;;;;;;;11.30;4.43;;;;;;;6.35;63.71;93635.72;5082533;28;20078;-81
2024/01/06 02:44:36;;;;;;;11.45;4.05;;;;;;;6.30;63.04;93630.50;5082668;28;20032;-81
2024/01/06 02:47:02;;;;;;;16.80;4.75;;;;;;;6.28;63.68;93637.16;5084882;28;20021;-81
2024/01/06 02:49:27;;;;;;;12.43;4.28;;;;;;;6.30;63.73;93630.50;5086697;28;20025;-81
2024/01/06 02:51:53;;;;;;;11.23;4.60;;;;;;;6.33;63.90;93615.88;5086358;28;20047;-81
2024/01/06 02:54:18;;;;;;;14.30;3.88;;;;;;;6.37;63.54;93619.53;5086639;28;20091;-81
2024/01/06 02:56:43;;;;;;;14.80;5.78;;;;;;;6.40;63.91;93614.44;5086735;28;20080;-81
2024/01/06 02:59:09;;;;;;;10.07;4.25;;;;;;;6.45;64.26;93605.59;5086284;28;20030;-81
2024/01/06 03:01:35;;;;;;;11.85;4.40;;;;;;;6.43;63.94;93607.75;5086659;28;20222;-81
2024/01/06 03:04:00;;;;;;;14.23;4.10;;;;;;;6.27;63.66;93598.53;5086461;28;20036;-81
2024/01/06 03:06:25;;;;;;;10.80;4.68;;;;;;;6.32;64.03;93595.81;5086497;28;20227;-82
2024/01/06 03:08:51;;;;;;;18.25;4.60;;;;;;;6.34;64.91;93610.31;5085026;28;20074;-82
2024/01/06 03:11:16;;;;;;;16.65;6.50;;;;;;;6.28;64.98;93611.47;5086053;28;20052;-82
2024/01/06 03:13:41;;;;;;;17.80;6.18;;;;;;;6.22;65.23;93605.47;5086189;28;20040;-82
2024/01/06 03:16:07;;;;;;;15.07;6.25;;;;;;;6.19;65.48;93607.94;5086525;28;20016;-82
2024/01/06 03:18:32;;;;;;;21.50;7.15;;;;;;;6.19;65.82;93606.06;5086300;28;20227;-83
2024/01/06 03:20:58;;;;;;;18.40;6.15;;;;;;;6.21;66.18;93601.28;5084685;28;20099;-82
2024/01/06 03:23:23;;;;;;;13.10;4.45;;;;;;;6.22;66.15;93597.53;5086021;28;20024;-82
2024/01/06 03:25:48;;;;;;;14.75;4.93;;;;;;;6.21;66.19;93595.22;5085831;28;20315;-82
2024/01/06 03:28:14;;;;;;;10.75;5.32;;;;;;;6.20;66.06;93593.63;5086033;28;20044;-82
2024/01/06 03:30:39;;;;;;;13.60;4.25;;;;;;;6.23;66.00;93604.41;5085777;28;20028;-81
2024/01/06 03:33:06;;;;;;;9.43;4.22;;;;;;;6.19;66.46;93598.13;5086054;28;20222;-81
2024/01/06 03:35:31;;;;;;;13.32;4.22;;;;;;;6.12;66.29;93589.78;5086105;28;20032;-85
2024/01/06 03:37:56;;;;;;;10.18;4.43;;;;;;;6.12;66.14;93592.44;5086095;28;20254;-86
2024/01/06 03:40:22;;;;;;;11.10;4.40;;;;;;;6.10;66.07;93588.50;5085993;28;20099;-86
2024/01/06 03:42:47;;;;;;;11.60;5.07;;;;;;;6.05;66.19;93592.03;5085528;28;20020;-85
2024/01/06 03:45:13;;;;;;;18.83;5.68;;;;;;;6.05;66.84;93586.75;5085996;28;20024;-85
2024/01/06 03:47:39;;;;;;;12.57;4.47;;;;;;;5.99;67.15;93582.63;5085700;28;20416;-85
2024/01/06 03:50:04;;;;;;;10.45;4.50;;;;;;;5.98;67.22;93595.06;5086377;28;20042;-89
2024/01/06 03:52:30;;;;;;;16.10;4.43;;;;;;;5.98;67.37;93591.59;5085017;28;20104;-89
2024/01/06 03:54:55;;;;;;;13.90;4.25;;;;;;;5.95;67.61;93582.41;5084640;28;20273;-89
2024/01/06 03:57:21;;;;;;;8.32;3.65;;;;;;;5.92;67.68;93596.19;5085660;28;20028;-88
2024/01/06 03:59:46;;;;;;;10.43;4.00;;;;;;;5.91;67.59;93588.53;5086633;28;20024;-87
2024/01/06 04:02:11;;;;;;;11.23;3.45;;;;;;;5.87;67.40;93588.31;5084989;28;20071;-82
2024/01/06 04:04:37;;;;;;;8.77;3.17;;;;;;;5.90;67.10;93573.72;5085381;28;20070;-82
2024/01/06 04:07:02;;;;;;;7.82;3.30;;;;;;;5.93;67.00;93594.31;5085855;28;20034;-82
2024/01/06 04:09:28;;;;;;;7.30;2.75;;;;;;;5.92;66.63;93592.75;5085067;28;20024;-82
2024/01/06 04:11:53;;;;;;;14.75;3.25;;;;;;;5.86;66.43;93592.03;5085686;28;20341;-82
2024/01/06 04:14:18;;;;;;;7.22;2.78;;;;;;;5.92;66.39;93590.09;5085125;28;20020;-82
2024/01/06 04:16:44;;;;;;;10.40;2.50;;;;;;;5.89;66.22;93585.41;5085571;28;20027;-82
2024/01/06 04:19:11;;;;;;;5.93;2.53;;;;;;;5.92;66.12;93588.25;5085443;28;20032;-86
2024/01/06 04:21:37;;;;;;;8.20;3.08;;;;;;;5.93;66.68;93581.09;5101286;28;20091;-86
2024/01/06 04:24:02;;;;;;;8.30;2.38;;;;;;;5.90;66.48;93574.50;5085379;28;20031;-87
2024/01/06 04:26:27;;;;;;;7.63;2.85;;;;;;;5.96;66.04;93572.59;5083652;28;20095;-87
2024/01/06 04:28:53;;;;;;;5.95;2.22;;;;;;;6.00;65.67;93584.97;5084906;28;20020;-87
2024/01/06 04:31:18;;;;;;;8.35;2.40;;;;;;;5.96;65.83;93584.00;5085069;28;20154;-87
2024/01/06 04:33:43;;;;;;;7.50;3.00;;;;;;;6.03;65.61;93600.25;5085232;28;20106;-87
2024/01/06 04:36:09;;;;;;;5.97;2.28;;;;;;;6.07;65.72;93595.19;5084826;28;20115;-87
2024/01/06 04:38:34;;;;;;;9.70;3.35;;;;;;;6.00;65.17;93606.13;5084849;28;20020;-85
2024/01/06 04:41:00;;;;;;;8.25;3.05;;;;;;;6.07;65.39;93591.75;5084689;28;20066;-87
2024/01/06 04:43:25;;;;;;;8.13;2.92;;;;;;;6.05;65.62;93601.84;5084966;28;20151;-87
2024/01/06 04:45:50;;;;;;;7.10;2.90;;;;;;;5.89;66.07;93614.50;5084602;28;20092;-87
2024/01/06 04:48:16;;;;;;;9.00;2.63;;;;;;;5.81;66.39;93592.91;5084787;28;20027;-87
2024/01/06 04:50:41;;;;;;;8.95;2.88;;;;;;;5.77;67.14;93602.50;5084574;28;20235;-85
2024/01/06 04:53:08;;;;;;;8.40;2.67;;;;;;;5.70;67.71;93615.31;5084349;28;20100;-85
2024/01/06 04:55:33;;;;;;;12.02;3.75;;;;;;;5.63;67.55;93617.53;5084736;28;20016;-85
2024/01/06 04:57:58;;;;;;;8.98;2.97;;;;;;;5.58;67.85;93610.47;5084237;28;20020;-82
2024/01/06 05:00:25;;;;;;;11.93;5.30;;;;;;;5.52;68.51;93621.41;5084245;28;20013;-81
2024/01/06 05:02:50;;;;;;;11.63;5.20;;;;;;;5.38;69.89;93598.31;5084364;28;20020;-81
2024/01/06 05:05:16;;;;;;;20.23;6.72;;;;;;;5.40;70.55;93598.81;5084358;28;20044;-82
2024/01/06 05:07:41;;;;;;;23.92;7.03;;;;;;;5.33;71.26;93608.16;5084057;28;20315;-81
2024/01/06 05:10:07;;;;;;;13.65;5.80;;;;;;;5.20;71.83;93597.25;5083666;28;20055;-81
2024/01/06 05:12:33;;;;;;;15.50;6.38;;;;;;;5.21;71.92;93590.91;5084063;28;20098;-81
2024/01/06 05:14:58;;;;;;;17.05;6.03;;;;;;;5.28;72.25;93595.03;5084060;28;20319;-81
2024/01/06 05:17:23;;;;;;;15.77;6.15;;;;;;;5.22;71.96;93594.31;5084145;28;20046;-81
2024/01/06 05:19:49;;;;;;;21.55;6.55;;;;;;;5.18;72.17;93585.41;5083845;28;20227;-81
2024/01/06 05:22:14;;;;;;;14.32;5.80;;;;;;;5.26;72.47;93579.47;5084007;28;20099;-80
2024/01/06 05:24:39;;;;;;;18.05;6.18;;;;;;;5.23;72.34;93578.19;5083443;28;20059;-80
2024/01/06 05:27:05;;;;;;;17.48;5.78;;;;;;;5.28;72.24;93569.41;5082658;28;20035;-83
2024/01/06 05:29:30;;;;;;;15.82;6.32;;;;;;;5.31;72.16;93576.75;5083696;28;20089;-82
2024/01/06 05:31:56;;;;;;;12.13;5.55;;;;;;;5.31;72.09;93568.84;5083567;28;20040;-83
2024/01/06 05:34:21;;;;;;;21.48;6.90;;;;;;;5.35;72.13;93574.31;5083690;28;20024;-84
2024/01/06 05:36:46;;;;;;;22.35;6.80;;;;;;;5.35;71.93;93553.16;5083470;28;20028;-83
2024/01/06 05:39:12;;;;;;;14.13;6.45;;;;;;;5.37;71.95;93578.25;5083622;28;20027;-84
2024/01/06 05:41:41;;;;;;;27.98;10.90;;;;;;;5.42;71.06;93557.03;5083346;28;20024;-84
2024/01/06 05:44:07;;;;;;;25.25;9.48;;;;;;;5.35;71.19;93553.16;5083728;28;20051;-84
2024/01/06 05:46:33;;;;;;;27.23;10.23;;;;;;;5.32;71.15;93549.25;5083397;28;20024;-84
2024/01/06 05:48:59;;;;;;;30.90;11.45;;;;;;;5.30;71.33;93567.25;5083405;28;20017;-83
2024/01/06 05:51:25;;;;;;;27.75;12.10;;;;;;;5.32;71.18;93570.41;5083280;28;20020;-83
2024/01/06 05:53:50;;;;;;;30.88;11.20;;;;;;;5.36;71.31;93562.69;5083605;28;20016;-83
2024/01/06 05:56:25;;;;;;;28.30;11.70;;;;;;;5.37;71.10;93562.41;5082258;28;20338;-85
2024/01/06 05:58:51;;;;;;;23.50;9.85;;;;;;;5.37;70.71;93549.19;5083492;28;20087;-85
2024/01/06 06:01:16;;;;;;;35.15;10.05;;;;;;;5.33;70.42;93561.41;5083456;28;20013;-83
2024/01/06 06:03:43;;;;;;;25.85;11.25;;;;;;;5.25;71.12;93564.69;5083323;28;20039;-83
2024/01/06 06:06:08;;;;;;;37.03;14.32;;;;;;;5.25;71.14;93550.69;5082902;28;20028;-83
2024/01/06 06:08:33;;;;;;;35.03;14.93;;;;;;;5.27;70.94;93551.19;5083234;28;20274;-83
2024/01/06 06:11:04;;;;;;;33.65;14.13;;;;;;;5.20;71.19;93552.31;5082935;28;20109;-83
2024/01/06 06:13:30;;;;;;;28.38;12.20;;;;;;;5.18;71.34;93556.34;5083179;28;20028;-83
2024/01/06 06:15:56;;;;;;;26.52;10.57;;;;;;;5.09;71.18;93544.81;5082952;28;20517;-84
2024/01/06 06:18:21;;;;;;;23.75;9.98;;;;;;;5.16;71.05;93550.56;5083308;28;20016;-83
2024/01/06 06:20:47;;;;;;;26.77;11.68;;;;;;;5.20;71.00;93554.97;5081979;28;20215;-83
2024/01/06 06:23:12;;;;;;;20.88;9.18;;;;;;;5.18;71.30;93551.03;5082943;28;20099;-83
2024/01/06 06:25:39;;;;;;;19.80;8.65;;;;;;;5.19;71.32;93566.63;5082898;28;20027;-83
2024/01/06 06:28:04;;;;;;;41.90;10.63;;;;;;;5.22;71.45;93559.97;5083159;28;20310;-83
2024/01/06 06:30:30;;;;;;;26.13;10.45;;;;;;;5.18;71.60;93569.53;5081795;28;20028;-83
2024/01/06 06:32:55;;;;;;;32.92;10.70;;;;;;;5.09;71.66;93568.59;5082895;28;20104;-84
2024/01/06 06:35:22;;;;;;;39.22;9.77;;;;;;;4.89;72.87;93559.91;5082662;28;20024;-81
2024/01/06 06:37:48;;;;;;;24.35;7.72;;;;;;;4.83;73.18;93574.22;5082653;28;20207;-83
2024/01/06 06:40:14;;;;;;;19.45;7.68;;;;;;;4.78;73.50;93561.09;5082675;28;20032;-83
2024/01/06 06:42:39;;;;;;;19.80;8.27;;;;;;;4.81;73.72;93582.44;5082576;28;20028;-83
2024/01/06 06:45:05;;;;;;;21.50;7.75;;;;;;;4.71;73.79;93581.78;5082681;28;20024;-84
2024/01/06 06:47:30;;;;;;;18.33;7.35;;;;;;;4.67;74.31;93563.06;5082334;28;20249;-85
2024/01/06 06:49:56;;;;;;;17.05;7.82;;;;;;;4.69;74.40;93562.78;5083026;28;20215;-85
2024/01/06 06:52:21;;;;;;;14.25;6.90;;;;;;;4.65;74.76;93588.97;5082748;28;20030;-86
2024/01/06 06:54:48;;;;;;;23.85;7.45;;;;;;;4.65;75.39;93562.56;5082543;28;20032;-83
2024/01/06 06:57:14;;;;;;;21.13;7.68;;;;;;;4.66;75.51;93572.06;5082585;28;20032;-83
2024/01/06 06:59:40;;;;;;;29.13;7.88;;;;;;;4.72;75.30;93562.22;5082136;28;20032;-83
2024/01/06 07:02:05;;;;;;;18.67;7.40;;;;;;;4.70;75.21;93567.81;5082532;28;20027;-82
2024/01/06 07:04:31;;;;;;;17.17;6.97;;;;;;;4.77;75.37;93572.72;5082127;28;20043;-81
2024/01/06 07:06:57;;;;;;;22.48;8.25;;;;;;;4.87;75.17;93567.31;5082452;28;20350;-82
2024/01/06 07:09:25;;;;;;;18.15;7.15;;;;;;;4.91;74.56;93570.19;5082179;28;20094;-83
2024/01/06 07:11:51;;;;;;;19.80;8.30;;;;;;;4.95;74.67;93571.97;5082078;28;20108;-85
2024/01/06 07:14:17;;;;;;;18.40;7.95;;;;;;;5.07;74.75;93568.09;5082511;28;20024;-85
2024/01/06 07:16:42;;;;;;;19.65;7.97;;;;;;;5.14;74.93;93563.25;5082216;28;20025;-79
2024/01/06 07:19:08;;;;;;;16.17;7.60;;;;;;;5.24;74.28;93568.41;5082052;28;20089;-79
2024/01/06 07:21:33;;;;;;;22.27;10.60;;;;;;;5.33;74.40;93557.97;5082381;28;20016;-81
2024/01/06 07:24:01;;;;;;;21.10;8.60;;;;;;;5.45;73.50;93562.81;5082329;28;20327;-81
2024/01/06 07:26:26;;;;;;;18.15;10.02;;;;;;;5.51;72.77;93574.88;5082198;28;20044;-80
2024/01/06 07:28:51;;;;;;;24.35;10.63;;;;;;;5.54;72.37;93555.81;5081985;28;20046;-79
2024/01/06 07:31:17;;;;;;;36.30;11.55;;;;;;;5.65;72.04;93557.19;5081722;28;20310;-79
2024/01/06 07:33:43;;;;;;;39.45;9.75;;;;;;;5.73;72.07;93548.63;5085147;28;20040;-78
2024/01/06 07:36:08;;;;;;;23.77;10.50;;;;;;;5.86;71.89;93554.22;5085681;28;20033;-78
2024/01/06 07:38:33;;;;;;;25.65;10.55;;;;;;;5.95;71.85;93550.66;5085883;28;20062;-81
2024/01/06 07:40:59;;;;;;;27.40;11.85;;;;;;;6.05;71.62;93555.00;5084311;28;20020;-80
2024/01/06 07:43:24;;;;;;;29.05;11.10;;;;;;;6.12;71.63;93552.72;5085743;28;20020;-80
2024/01/06 07:45:50;;;;;;;28.15;11.73;;;;;;;6.22;71.23;93543.84;5084719;28;20024;-81
2024/01/06 07:48:16;;;;;;;35.55;13.18;;;;;;;6.31;71.02;93551.88;5085415;28;20223;-81
2024/01/06 07:50:42;;;;;;;26.95;13.43;;;;;;;6.41;71.13;93554.31;5085564;28;20028;-81
2024/01/06 07:53:07;;;;;;;30.05;14.35;;;;;;;6.51;71.32;93546.19;5085673;28;20114;-82
2024/01/06 07:55:32;;;;;;;33.38;14.50;;;;;;;6.57;70.49;93545.03;5086031;28;20051;-83
2024/01/06 07:57:58;;;;;;;42.45;15.73;;;;;;;6.70;69.27;93547.97;5085677;28;20020;-83
2024/01/06 08:00:24;;;;;;;38.13;14.48;;;;;;;6.69;69.63;93552.47;5085551;28;20012;-83
2024/01/06 08:02:49;;;;;;;29.98;12.32;;;;;;;6.69;69.82;93552.47;5083846;28;20024;-82
2024/01/06 08:05:14;;;;;;;32.67;12.57;;;;;;;6.67;69.41;93543.25;5085347;28;20024;-83
2024/01/06 08:07:40;;;;;;;35.85;10.60;;;;;;;6.76;69.53;93558.16;5085591;28;20073;-79
2024/01/06 08:10:06;;;;;;;40.40;11.93;;;;;;;6.80;69.72;93553.06;5085439;28;20028;-79
2024/01/06 08:12:31;;;;;;;26.40;11.13;;;;;;;6.82;69.02;93566.78;5084145;28;20059;-81
2024/01/06 08:14:57;;;;;;;38.63;10.90;;;;;;;6.82;69.20;93556.19;5085154;28;20032;-82
2024/01/06 08:17:22;;;;;;;44.08;10.40;;;;;;;6.87;69.78;93558.72;5083844;28;20334;-85
2024/01/06 08:19:48;;;;;;;43.03;11.65;;;;;;;7.00;69.25;93547.34;5085210;28;20036;-84
2024/01/06 08:22:14;;;;;;;32.13;10.25;;;;;;;7.11;68.86;93541.81;5084978;28;20025;-81
2024/01/06 08:24:39;;;;;;;28.60;9.98;;;;;;;7.23;68.08;93542.06;5084688;28;20368;-77
2024/01/06 08:27:05;;;;;;;22.55;6.68;;;;;;;7.33;67.51;93552.44;5085016;28;20028;-74
2024/01/06 08:29:31;;;;;;;19.58;7.03;;;;;;;7.46;66.29;93534.13;5084789;28;20024;-76
2024/01/06 08:31:56;;;;;;;27.75;7.57;;;;;;;7.58;65.79;93545.75;5084683;28;20216;-71
2024/01/06 08:34:21;;;;;;;8.68;3.67;;;;;;;7.73;66.08;93541.97;5084700;28;20021;-72
2024/01/06 08:36:47;;;;;;;8.18;3.35;;;;;;;7.86;63.24;93535.03;5085057;28;20037;-71
2024/01/06 08:39:12;;;;;;;9.98;3.70;;;;;;;7.98;63.95;93529.94;5084877;28;20036;-69
2024/01/06 08:41:38;;;;;;;18.25;3.55;;;;;;;8.11;62.27;93556.72;5084753;28;20331;-71
2024/01/06 08:44:04;;;;;;;9.20;3.33;;;;;;;8.32;62.28;93551.66;5083947;28;20032;-70
2024/01/06 08:46:30;;;;;;;10.40;4.00;;;;;;;8.47;62.84;93535.34;5084464;28;20098;-84
2024/01/06 08:48:56;;;;;;;21.00;6.40;;;;;;;8.63;61.24;93551.66;5084781;28;20025;-84
2024/01/06 08:51:21;;;;;;;24.55;7.57;;;;;;;8.68;62.32;93554.16;5085004;28;20036;-84
2024/01/06 08:53:47;;;;;;;20.35;7.97;;;;;;;8.57;62.98;93558.97;5085026;28;20025;-84
2024/01/06 08:56:12;;;;;;;24.80;8.18;;;;;;;8.53;63.07;93531.47;5084739;28;20043;-84
2024/01/06 08:58:38;;;;;;;34.00;10.43;;;;;;;8.42;64.11;93546.88;5084577;28;20032;-85
2024/01/06 09:01:03;;;;;;;22.05;8.57;;;;;;;8.36;64.31;93552.59;5084798;28;20086;-84
2024/01/06 09:03:29;;;;;;;27.70;9.55;;;;;;;8.37;64.63;93527.63;5084665;28;20035;-84
2024/01/06 09:05:57;;;;;;;21.85;7.75;;;;;;;8.30;65.05;93556.47;5084620;28;20028;-84
2024/01/06 09:08:24;;;;;;;20.95;8.93;;;;;;;8.29;64.95;93523.06;5084282;28;20319;-84
2024/01/06 09:10:51;;;;;;;31.63;10.30;;;;;;;8.07;65.48;93508.75;5084255;28;20046;-84
2024/01/06 09:13:21;;;;;;;25.10;7.97;;;;;;;8.04;65.33;93541.22;5084175;28;20020;-83
2024/01/06 09:15:47;;;;;;;30.67;7.70;;;;;;;7.95;64.99;93516.50;5084075;28;20032;-82
2024/01/06 09:18:12;;;;;;;26.45;7.65;;;;;;;7.92;66.03;93527.72;5084010;28;20016;-84
2024/01/06 09:20:38;;;;;;;25.80;7.57;;;;;;;8.01;64.89;93509.97;5084195;28;20012;-83
2024/01/06 09:23:04;;;;;;;22.58;7.93;;;;;;;7.89;65.23;93497.25;5084379;28;20100;-83
2024/01/06 09:25:29;;;;;;;37.45;8.48;;;;;;;7.99;66.55;93517.44;5082859;28;20052;-83
2024/01/06 09:27:55;;;;;;;28.45;8.65;;;;;;;8.07;65.05;93498.13;5083932;28;20047;-83
2024/01/06 09:30:20;;;;;;;23.80;8.55;;;;;;;8.10;65.12;93500.19;5083721;28;20044;-83
2024/01/06 09:32:46;;;;;;;21.90;7.82;;;;;;;8.25;64.73;93483.06;5083925;28;20032;-84
2024/01/06 09:35:11;;;;;;;30.20;8.95;;;;;;;8.36;64.64;93480.91;5083775;28;20024;-84
2024/01/06 09:37:36;;;;;;;26.42;8.40;;;;;;;8.47;64.42;93489.41;5083693;28;20074;-83
2024/01/06 09:40:02;;;;;;;17.23;8.30;;;;;;;8.58;63.99;93488.81;5083860;28;20025;-83
2024/01/06 09:42:27;;;;;;;30.65;9.05;;;;;;;8.70;63.76;93471.50;5084113;28;20024;-83
2024/01/06 09:44:53;;;;;;;35.97;9.02;;;;;;;8.82;63.46;93479.63;5082432;28;20135;-83
2024/01/06 09:47:18;;;;;;;36.03;8.98;;;;;;;8.95;62.73;93480.59;5083789;28;20038;-84
2024/01/06 09:49:49;;;;;;;28.27;7.22;;;;;;;8.96;61.98;93450.28;5083646;28;20066;-84
2024/01/06 09:52:17;;;;;;;22.70;7.13;;;;;;;9.10;61.06;93468.69;5081904;28;20288;-84
2024/01/06 09:54:50;;;;;;;20.38;6.28;;;;;;;9.24;61.24;93448.06;5081844;28;20020;-84
2024/01/06 09:57:16;;;;;;;16.80;6.50;;;;;;;9.34;60.94;93452.28;5081929;28;20020;-84
2024/01/06 09:59:44;;;;;;;25.40;7.63;;;;;;;9.47;61.23;93453.22;5083692;28;20340;-84
2024/01/06 10:02:14;;;;;;;14.60;5.03;;;;;;;9.63;59.48;93451.63;5083240;28;20035;-85
2024/01/06 10:04:40;;;;;;;14.00;5.35;;;;;;;9.76;58.73;93450.63;5083328;28;20050;-83
2024/01/06 10:07:05;;;;;;;17.35;5.68;;;;;;;9.88;58.75;93438.56;5083398;28;20029;-84
2024/01/06 10:09:31;;;;;;;16.83;5.90;;;;;;;9.98;58.67;93438.22;5083064;28;20342;-85
2024/01/06 10:11:58;;;;;;;17.08;6.00;;;;;;;10.11;58.33;93428.44;5083429;28;20096;-85
2024/01/06 10:14:25;;;;;;;18.20;4.85;;;;;;;10.21;57.61;93407.53;5083219;28;20026;-84
2024/01/06 10:16:52;;;;;;;14.40;4.43;;;;;;;10.23;56.55;93421.31;5082954;28;20231;-84
2024/01/06 10:19:17;;;;;;;20.98;4.95;;;;;;;10.27;56.34;93424.13;5083080;28;20020;-84
2024/01/06 10:21:43;;;;;;;13.90;4.65;;;;;;;10.29;56.48;93423.81;5082988;28;20044;-84
2024/01/06 10:24:09;;;;;;;14.02;4.38;;;;;;;10.37;56.69;93407.81;5081743;28;20058;-84
2024/01/06 10:26:35;;;;;;;12.07;4.32;;;;;;;10.46;56.64;93407.75;5081025;28;20020;-83
2024/01/06 10:29:00;;;;;;;20.77;4.72;;;;;;;10.49;56.01;93417.00;5083087;28;20016;-84
2024/01/06 10:31:26;;;;;;;19.60;5.00;;;;;;;10.60;55.62;93410.97;5081649;28;20029;-84
2024/01/06 10:33:52;;;;;;;14.88;5.18;;;;;;;10.69;55.63;93399.47;5081259;28;20012;-83
2024/01/06 10:36:17;;;;;;;14.13;6.00;;;;;;;10.76;55.85;93402.41;5082262;28;20028;-84
2024/01/06 10:38:44;;;;;;;23.70;5.85;;;;;;;10.87;55.44;93400.91;5082366;28;20310;-84
2024/01/06 10:41:11;;;;;;;19.73;5.63;;;;;;;10.94;55.49;93387.81;5082602;28;20063;-85
2024/01/06 10:43:40;;;;;;;28.30;7.63;;;;;;;10.99;55.18;93382.31;5082530;28;20246;-84
2024/01/06 10:46:10;;;;;;;19.48;6.50;;;;;;;11.07;55.18;93380.66;5082835;28;20379;-85
2024/01/06 10:48:38;;;;;;;16.77;6.85;;;;;;;11.17;55.09;93374.94;5082911;28;20024;-85
2024/01/06 10:51:07;;;;;;;13.15;6.60;;;;;;;11.23;54.82;93375.50;5082963;28;20208;-85
2024/01/06 10:53:35;;;;;;;19.15;7.32;;;;;;;11.29;54.75;93382.19;5082553;28;20370;-85
2024/01/06 10:56:01;;;;;;;18.50;8.93;;;;;;;11.33;54.80;93375.09;5081713;28;20210;-85
2024/01/06 10:58:28;;;;;;;33.08;10.25;;;;;;;11.37;54.59;93372.53;5082769;28;20024;-85
2024/01/06 11:00:59;;;;;;;36.78;11.30;;;;;;;11.41;54.76;93362.78;5082646;28;20027;-85
2024/01/06 11:03:28;;;;;;;34.67;11.82;;;;;;;11.38;55.12;93358.09;5082659;28;20062;-85
2024/01/06 11:05:54;;;;;;;41.50;11.52;;;;;;;11.45;55.21;93351.09;5082613;28;20042;-87
2024/01/06 11:08:22;;;;;;;38.25;11.90;;;;;;;11.45;55.56;93358.34;5085390;28;20234;-90
2024/01/06 11:10:47;;;;;;;41.97;13.27;;;;;;;11.43;56.05;93341.88;5086567;28;20041;-90
2024/01/06 11:13:20;;;;;;;44.08;15.75;;;;;;;11.47;56.07;93342.00;5085253;28;20020;-89
2024/01/06 11:15:51;;;;;;;50.33;14.50;;;;;;;11.56;56.15;93332.00;5085621;28;20020;-88
2024/01/06 11:18:38;;;;;;;38.97;12.23;;;;;;;11.56;55.63;93345.34;5086685;28;20108;-89
2024/01/06 11:21:25;;;;;;;25.60;9.65;;;;;;;11.63;53.94;93337.56;5086471;28;20043;-88
2024/01/06 11:24:09;;;;;;;25.90;10.35;;;;;;;11.70;53.75;93329.78;5086307;28;20031;-89
2024/01/06 11:26:39;;;;;;;20.95;6.85;;;;;;;11.81;51.91;93328.25;5086395;28;20029;-88